Pagrindinis puslapis
METAR-TAF:

METAR-TAF

Oro uostai :

Båtsfjord, Norvegija

platuma: 70-38N, ilguma: 029-44E, Aukštis: 10 m

Dabartinis oras

Ataskaita buvo paskelbta 23 minutes, ne 14:20 UTC
Vėjas 23 kt iš Šiaurės/Šiaurės Vakarų
Temperatūra 1°C
Drėgmė 86%
Slėgis 991 hPa
Išsisklaidę debesys ne aukštis 700 ft
Išsisklaidę debesys ne aukštis 1200 ft
Su prošvaistėmis ne aukštis 1900 ft
lietus, dulksna

METAR: ENBS 291420Z 33023KT -SHRADZ SCT007 SCT012 BKN019 01/M01 Q0991

Laikas: 15:43 (14:43 UTC)


TAF: trūkstamas

Orai ataskaitas ir orų prognozės (METAR, TAF).

turimą stotys yra geltonos ir raudonos taškus žemėlapyje.

Perkelti pele per norėdami pamatyti stoties vardą.

Tada spustelėkite, norėdami matyti oro stebėjimo ir prognozės.

Norėdami pakeisti žemėlapį: spustelėkite ant žalios mygtukų su juodo kryžiaus žemyn,; žalią mygtuką su brūkšneliu, jei norite nutolinti; arba žalių rodyklių gretimoms žemėlapius.


METAR-TAF: